sensor_id;sensor_type;location;lat;lon;timestamp;temperature;humidity
21275;DHT22;36472;52.170;20.884;2023-04-25T00:00:07;31.10;41.00
21275;DHT22;36472;52.170;20.884;2023-04-25T00:03:00;31.10;41.10
21275;DHT22;36472;52.170;20.884;2023-04-25T00:05:29;31.10;41.20
21275;DHT22;36472;52.170;20.884;2023-04-25T00:08:00;31.10;41.10
21275;DHT22;36472;52.170;20.884;2023-04-25T00:10:29;31.10;41.10
21275;DHT22;36472;52.170;20.884;2023-04-25T00:12:57;31.10;41.30
21275;DHT22;36472;52.170;20.884;2023-04-25T00:15:29;31.10;41.20
21275;DHT22;36472;52.170;20.884;2023-04-25T00:17:58;31.10;41.30
21275;DHT22;36472;52.170;20.884;2023-04-25T00:20:27;31.10;41.60
21275;DHT22;36472;52.170;20.884;2023-04-25T00:22:57;31.10;41.60
21275;DHT22;36472;52.170;20.884;2023-04-25T00:25:27;31.00;41.40
21275;DHT22;36472;52.170;20.884;2023-04-25T00:27:56;31.10;41.50
21275;DHT22;36472;52.170;20.884;2023-04-25T00:30:25;31.10;41.50
21275;DHT22;36472;52.170;20.884;2023-04-25T00:32:54;31.00;41.60
21275;DHT22;36472;52.170;20.884;2023-04-25T00:35:23;31.00;41.50
21275;DHT22;36472;52.170;20.884;2023-04-25T00:37:51;31.10;41.80
21275;DHT22;36472;52.170;20.884;2023-04-25T00:40:21;31.10;41.90
21275;DHT22;36472;52.170;20.884;2023-04-25T00:42:52;31.00;42.10
21275;DHT22;36472;52.170;20.884;2023-04-25T00:45:21;31.10;42.30
21275;DHT22;36472;52.170;20.884;2023-04-25T00:47:55;31.00;42.80
21275;DHT22;36472;52.170;20.884;2023-04-25T00:50:25;31.00;43.00
21275;DHT22;36472;52.170;20.884;2023-04-25T00:52:53;31.10;43.20
21275;DHT22;36472;52.170;20.884;2023-04-25T00:55:22;31.10;43.30
21275;DHT22;36472;52.170;20.884;2023-04-25T00:57:53;31.10;43.50
21275;DHT22;36472;52.170;20.884;2023-04-25T01:00:22;31.10;43.60
21275;DHT22;36472;52.170;20.884;2023-04-25T01:02:52;31.10;43.60
21275;DHT22;36472;52.170;20.884;2023-04-25T01:05:21;31.10;43.60
21275;DHT22;36472;52.170;20.884;2023-04-25T01:07:50;31.10;43.60
21275;DHT22;36472;52.170;20.884;2023-04-25T01:10:20;31.10;43.90
21275;DHT22;36472;52.170;20.884;2023-04-25T01:12:48;31.00;43.60
21275;DHT22;36472;52.170;20.884;2023-04-25T01:15:19;31.10;43.60
21275;DHT22;36472;52.170;20.884;2023-04-25T01:17:48;31.00;43.50
21275;DHT22;36472;52.170;20.884;2023-04-25T01:20:17;31.00;43.60
21275;DHT22;36472;52.170;20.884;2023-04-25T01:22:51;31.00;43.60
21275;DHT22;36472;52.170;20.884;2023-04-25T01:25:22;31.00;43.60
21275;DHT22;36472;52.170;20.884;2023-04-25T01:27:51;31.10;43.80
21275;DHT22;36472;52.170;20.884;2023-04-25T01:30:21;31.00;43.70
21275;DHT22;36472;52.170;20.884;2023-04-25T01:32:51;31.00;43.80
21275;DHT22;36472;52.170;20.884;2023-04-25T01:35:22;31.00;43.90
21275;DHT22;36472;52.170;20.884;2023-04-25T01:37:55;31.00;44.00
21275;DHT22;36472;52.170;20.884;2023-04-25T01:40:24;31.00;44.00
21275;DHT22;36472;52.170;20.884;2023-04-25T01:42:56;30.90;44.00
21275;DHT22;36472;52.170;20.884;2023-04-25T01:45:25;30.90;44.00
21275;DHT22;36472;52.170;20.884;2023-04-25T01:47:54;30.90;44.20
21275;DHT22;36472;52.170;20.884;2023-04-25T01:50:26;30.90;44.30
21275;DHT22;36472;52.170;20.884;2023-04-25T01:52:57;30.90;44.30
21275;DHT22;36472;52.170;20.884;2023-04-25T01:55:26;30.80;44.30
21275;DHT22;36472;52.170;20.884;2023-04-25T01:58:04;30.80;44.30
21275;DHT22;36472;52.170;20.884;2023-04-25T02:00:54;30.80;44.30
21275;DHT22;36472;52.170;20.884;2023-04-25T02:03:27;30.80;44.30
21275;DHT22;36472;52.170;20.884;2023-04-25T02:05:57;30.80;44.30
21275;DHT22;36472;52.170;20.884;2023-04-25T02:08:27;30.80;44.40
21275;DHT22;36472;52.170;20.884;2023-04-25T02:10:57;30.80;44.30
21275;DHT22;36472;52.170;20.884;2023-04-25T02:13:33;30.80;44.20
21275;DHT22;36472;52.170;20.884;2023-04-25T02:16:30;30.80;44.30
21275;DHT22;36472;52.170;20.884;2023-04-25T02:19:01;30.70;44.30
21275;DHT22;36472;52.170;20.884;2023-04-25T02:21:30;30.70;44.40
21275;DHT22;36472;52.170;20.884;2023-04-25T02:24:01;30.70;44.20
21275;DHT22;36472;52.170;20.884;2023-04-25T02:26:30;30.70;44.20
21275;DHT22;36472;52.170;20.884;2023-04-25T02:28:59;30.70;44.20
21275;DHT22;36472;52.170;20.884;2023-04-25T02:31:28;30.70;44.10
21275;DHT22;36472;52.170;20.884;2023-04-25T02:33:57;30.70;44.10
21275;DHT22;36472;52.170;20.884;2023-04-25T02:36:27;30.70;44.30
21275;DHT22;36472;52.170;20.884;2023-04-25T02:39:00;30.60;44.10
21275;DHT22;36472;52.170;20.884;2023-04-25T02:41:30;30.60;44.30
21275;DHT22;36472;52.170;20.884;2023-04-25T02:43:59;30.60;45.00
21275;DHT22;36472;52.170;20.884;2023-04-25T02:46:28;30.60;44.40
21275;DHT22;36472;52.170;20.884;2023-04-25T02:49:05;30.60;44.40
21275;DHT22;36472;52.170;20.884;2023-04-25T02:51:35;30.60;44.40
21275;DHT22;36472;52.170;20.884;2023-04-25T02:54:06;30.60;44.40
21275;DHT22;36472;52.170;20.884;2023-04-25T02:56:40;30.60;44.40
21275;DHT22;36472;52.170;20.884;2023-04-25T02:59:14;30.60;44.40
21275;DHT22;36472;52.170;20.884;2023-04-25T03:01:43;30.60;44.50
21275;DHT22;36472;52.170;20.884;2023-04-25T03:04:12;30.60;44.50
21275;DHT22;36472;52.170;20.884;2023-04-25T03:06:41;30.60;44.50
21275;DHT22;36472;52.170;20.884;2023-04-25T03:09:11;30.50;44.50
21275;DHT22;36472;52.170;20.884;2023-04-25T03:11:41;30.50;45.10
21275;DHT22;36472;52.170;20.884;2023-04-25T03:14:10;30.50;44.50
21275;DHT22;36472;52.170;20.884;2023-04-25T03:16:39;30.50;44.40
21275;DHT22;36472;52.170;20.884;2023-04-25T03:19:08;30.50;44.40
21275;DHT22;36472;52.170;20.884;2023-04-25T03:21:37;30.50;44.30
21275;DHT22;36472;52.170;20.884;2023-04-25T03:24:06;30.50;44.30
21275;DHT22;36472;52.170;20.884;2023-04-25T03:26:36;30.50;44.30
21275;DHT22;36472;52.170;20.884;2023-04-25T03:29:05;30.60;44.40
21275;DHT22;36472;52.170;20.884;2023-04-25T03:31:35;30.50;44.20
21275;DHT22;36472;52.170;20.884;2023-04-25T03:34:04;30.60;44.40
21275;DHT22;36472;52.170;20.884;2023-04-25T03:36:33;30.60;44.30
21275;DHT22;36472;52.170;20.884;2023-04-25T03:39:02;30.60;44.30
21275;DHT22;36472;52.170;20.884;2023-04-25T03:41:32;30.60;44.30
21275;DHT22;36472;52.170;20.884;2023-04-25T03:44:06;30.60;44.00
21275;DHT22;36472;52.170;20.884;2023-04-25T03:46:35;30.60;44.20
21275;DHT22;36472;52.170;20.884;2023-04-25T03:49:04;30.60;44.10
21275;DHT22;36472;52.170;20.884;2023-04-25T03:51:56;30.60;44.10
21275;DHT22;36472;52.170;20.884;2023-04-25T03:54:29;30.50;44.00
21275;DHT22;36472;52.170;20.884;2023-04-25T03:57:04;30.60;44.10
21275;DHT22;36472;52.170;20.884;2023-04-25T03:59:37;30.50;44.00
21275;DHT22;36472;52.170;20.884;2023-04-25T04:02:09;30.50;44.20
21275;DHT22;36472;52.170;20.884;2023-04-25T04:04:39;30.50;44.20
21275;DHT22;36472;52.170;20.884;2023-04-25T04:07:09;30.50;44.30
21275;DHT22;36472;52.170;20.884;2023-04-25T04:09:41;30.50;44.20
21275;DHT22;36472;52.170;20.884;2023-04-25T04:12:16;30.40;44.20
21275;DHT22;36472;52.170;20.884;2023-04-25T04:14:46;30.40;44.30
21275;DHT22;36472;52.170;20.884;2023-04-25T04:17:15;30.50;44.40
21275;DHT22;36472;52.170;20.884;2023-04-25T04:19:44;30.40;44.70
21275;DHT22;36472;52.170;20.884;2023-04-25T04:22:18;30.40;44.60
21275;DHT22;36472;52.170;20.884;2023-04-25T04:24:48;30.40;44.70
21275;DHT22;36472;52.170;20.884;2023-04-25T04:27:30;30.40;44.70
21275;DHT22;36472;52.170;20.884;2023-04-25T04:30:35;30.40;44.80
21275;DHT22;36472;52.170;20.884;2023-04-25T04:33:07;30.40;44.80
21275;DHT22;36472;52.170;20.884;2023-04-25T04:35:37;30.30;44.90
21275;DHT22;36472;52.170;20.884;2023-04-25T04:38:06;30.30;45.30
21275;DHT22;36472;52.170;20.884;2023-04-25T04:40:36;30.30;45.40
21275;DHT22;36472;52.170;20.884;2023-04-25T04:43:13;30.20;45.30
21275;DHT22;36472;52.170;20.884;2023-04-25T04:46:04;30.20;45.30
21275;DHT22;36472;52.170;20.884;2023-04-25T04:48:52;30.30;45.50
21275;DHT22;36472;52.170;20.884;2023-04-25T04:51:39;30.20;45.40
21275;DHT22;36472;52.170;20.884;2023-04-25T04:54:33;30.10;45.20
21275;DHT22;36472;52.170;20.884;2023-04-25T04:57:16;30.10;45.50
21275;DHT22;36472;52.170;20.884;2023-04-25T05:00:15;30.10;45.60
21275;DHT22;36472;52.170;20.884;2023-04-25T05:03:04;30.00;45.60
21275;DHT22;36472;52.170;20.884;2023-04-25T05:05:56;30.00;45.40
21275;DHT22;36472;52.170;20.884;2023-04-25T05:08:46;29.90;45.50
21275;DHT22;36472;52.170;20.884;2023-04-25T05:11:30;29.80;45.60
21275;DHT22;36472;52.170;20.884;2023-04-25T05:14:14;29.70;45.20
21275;DHT22;36472;52.170;20.884;2023-04-25T05:16:44;29.70;45.50
21275;DHT22;36472;52.170;20.884;2023-04-25T05:19:24;29.70;45.60
21275;DHT22;36472;52.170;20.884;2023-04-25T05:22:22;29.70;45.80
21275;DHT22;36472;52.170;20.884;2023-04-25T05:25:09;29.60;45.60
21275;DHT22;36472;52.170;20.884;2023-04-25T05:28:11;29.60;45.60
21275;DHT22;36472;52.170;20.884;2023-04-25T05:30:49;29.70;45.80
21275;DHT22;36472;52.170;20.884;2023-04-25T05:33:27;29.60;45.80
21275;DHT22;36472;52.170;20.884;2023-04-25T05:35:58;29.70;46.00
21275;DHT22;36472;52.170;20.884;2023-04-25T05:38:27;29.70;45.80
21275;DHT22;36472;52.170;20.884;2023-04-25T05:41:19;29.80;45.70
21275;DHT22;36472;52.170;20.884;2023-04-25T05:44:13;29.80;45.90
21275;DHT22;36472;52.170;20.884;2023-04-25T05:47:02;29.80;45.80
21275;DHT22;36472;52.170;20.884;2023-04-25T05:49:50;29.80;45.50
21275;DHT22;36472;52.170;20.884;2023-04-25T05:52:28;29.80;45.50
21275;DHT22;36472;52.170;20.884;2023-04-25T05:55:10;29.80;45.40
21275;DHT22;36472;52.170;20.884;2023-04-25T05:57:39;29.80;45.40
21275;DHT22;36472;52.170;20.884;2023-04-25T06:00:09;29.80;45.30
21275;DHT22;36472;52.170;20.884;2023-04-25T06:02:40;29.80;45.30
21275;DHT22;36472;52.170;20.884;2023-04-25T06:05:12;29.70;45.10
21275;DHT22;36472;52.170;20.884;2023-04-25T06:07:43;29.80;45.40
21275;DHT22;36472;52.170;20.884;2023-04-25T06:10:12;29.80;45.20
21275;DHT22;36472;52.170;20.884;2023-04-25T06:12:42;29.80;45.20
21275;DHT22;36472;52.170;20.884;2023-04-25T06:15:12;29.80;45.30
21275;DHT22;36472;52.170;20.884;2023-04-25T06:17:55;29.90;45.30
21275;DHT22;36472;52.170;20.884;2023-04-25T06:20:24;29.90;45.50
21275;DHT22;36472;52.170;20.884;2023-04-25T06:22:58;29.90;44.90
21275;DHT22;36472;52.170;20.884;2023-04-25T06:25:37;29.80;44.80
21275;DHT22;36472;52.170;20.884;2023-04-25T06:28:06;29.80;44.40
21275;DHT22;36472;52.170;20.884;2023-04-25T06:30:35;29.80;44.40
21275;DHT22;36472;52.170;20.884;2023-04-25T06:33:09;29.70;44.40
21275;DHT22;36472;52.170;20.884;2023-04-25T06:35:39;29.60;44.90
21275;DHT22;36472;52.170;20.884;2023-04-25T06:38:12;29.50;45.00
21275;DHT22;36472;52.170;20.884;2023-04-25T06:40:46;29.50;45.00
21275;DHT22;36472;52.170;20.884;2023-04-25T06:43:15;29.40;45.80
21275;DHT22;36472;52.170;20.884;2023-04-25T06:46:04;29.40;46.00
21275;DHT22;36472;52.170;20.884;2023-04-25T06:48:41;29.30;45.80
21275;DHT22;36472;52.170;20.884;2023-04-25T06:51:11;29.20;45.30
21275;DHT22;36472;52.170;20.884;2023-04-25T06:53:43;29.00;45.30
21275;DHT22;36472;52.170;20.884;2023-04-25T06:56:22;29.00;46.60
21275;DHT22;36472;52.170;20.884;2023-04-25T06:59:21;28.90;45.90
21275;DHT22;36472;52.170;20.884;2023-04-25T07:01:50;28.80;46.40
21275;DHT22;36472;52.170;20.884;2023-04-25T07:04:25;28.80;46.60
21275;DHT22;36472;52.170;20.884;2023-04-25T07:06:56;28.70;46.80
21275;DHT22;36472;52.170;20.884;2023-04-25T07:09:46;28.70;46.50
21275;DHT22;36472;52.170;20.884;2023-04-25T07:12:15;28.70;46.50
21275;DHT22;36472;52.170;20.884;2023-04-25T07:14:44;28.80;46.80
21275;DHT22;36472;52.170;20.884;2023-04-25T07:17:13;28.80;47.30
21275;DHT22;36472;52.170;20.884;2023-04-25T07:19:43;28.80;46.80
21275;DHT22;36472;52.170;20.884;2023-04-25T07:22:12;28.90;46.80
21275;DHT22;36472;52.170;20.884;2023-04-25T07:24:42;28.90;46.70
21275;DHT22;36472;52.170;20.884;2023-04-25T07:27:16;28.90;46.40
21275;DHT22;36472;52.170;20.884;2023-04-25T07:29:56;28.90;46.20
21275;DHT22;36472;52.170;20.884;2023-04-25T07:32:25;28.90;46.70
21275;DHT22;36472;52.170;20.884;2023-04-25T07:34:55;28.90;46.30
21275;DHT22;36472;52.170;20.884;2023-04-25T07:37:24;28.90;46.40
21275;DHT22;36472;52.170;20.884;2023-04-25T07:40:19;28.90;46.70
21275;DHT22;36472;52.170;20.884;2023-04-25T07:42:54;28.90;46.20
21275;DHT22;36472;52.170;20.884;2023-04-25T07:45:31;28.90;46.20
21275;DHT22;36472;52.170;20.884;2023-04-25T07:48:01;28.80;45.50
21275;DHT22;36472;52.170;20.884;2023-04-25T07:50:34;28.60;45.40
21275;DHT22;36472;52.170;20.884;2023-04-25T07:53:03;28.60;45.80
21275;DHT22;36472;52.170;20.884;2023-04-25T07:55:37;28.50;45.60
21275;DHT22;36472;52.170;20.884;2023-04-25T07:58:14;28.50;46.00
21275;DHT22;36472;52.170;20.884;2023-04-25T08:00:51;28.40;45.40
21275;DHT22;36472;52.170;20.884;2023-04-25T08:03:35;28.50;45.70
21275;DHT22;36472;52.170;20.884;2023-04-25T08:06:09;28.50;45.80
21275;DHT22;36472;52.170;20.884;2023-04-25T08:08:49;28.40;45.50
21275;DHT22;36472;52.170;20.884;2023-04-25T08:11:21;28.40;45.60
21275;DHT22;36472;52.170;20.884;2023-04-25T08:13:51;28.40;45.70
21275;DHT22;36472;52.170;20.884;2023-04-25T08:16:21;28.40;45.80
21275;DHT22;36472;52.170;20.884;2023-04-25T08:18:51;28.40;45.50
21275;DHT22;36472;52.170;20.884;2023-04-25T08:21:20;28.50;45.60
21275;DHT22;36472;52.170;20.884;2023-04-25T08:23:49;28.50;45.80
21275;DHT22;36472;52.170;20.884;2023-04-25T08:26:26;28.60;45.60
21275;DHT22;36472;52.170;20.884;2023-04-25T08:28:56;28.70;45.50
21275;DHT22;36472;52.170;20.884;2023-04-25T08:31:26;28.80;45.70
21275;DHT22;36472;52.170;20.884;2023-04-25T08:33:58;28.80;45.30
21275;DHT22;36472;52.170;20.884;2023-04-25T08:36:38;28.90;45.50
21275;DHT22;36472;52.170;20.884;2023-04-25T08:39:36;28.90;44.90
21275;DHT22;36472;52.170;20.884;2023-04-25T08:42:24;28.90;44.40
21275;DHT22;36472;52.170;20.884;2023-04-25T08:44:57;28.90;44.80
21275;DHT22;36472;52.170;20.884;2023-04-25T08:47:38;29.00;44.60
21275;DHT22;36472;52.170;20.884;2023-04-25T08:50:09;29.00;44.60
21275;DHT22;36472;52.170;20.884;2023-04-25T08:52:44;29.00;44.30
21275;DHT22;36472;52.170;20.884;2023-04-25T08:55:15;29.10;44.70
21275;DHT22;36472;52.170;20.884;2023-04-25T08:57:45;29.20;44.80
21275;DHT22;36472;52.170;20.884;2023-04-25T09:00:18;29.20;43.90
21275;DHT22;36472;52.170;20.884;2023-04-25T09:02:47;29.20;44.00
21275;DHT22;36472;52.170;20.884;2023-04-25T09:05:17;29.20;44.00
21275;DHT22;36472;52.170;20.884;2023-04-25T09:07:52;29.20;44.40
21275;DHT22;36472;52.170;20.884;2023-04-25T09:10:20;29.20;44.40
21275;DHT22;36472;52.170;20.884;2023-04-25T09:13:02;29.20;43.70
21275;DHT22;36472;52.170;20.884;2023-04-25T09:15:50;29.20;44.30
21275;DHT22;36472;52.170;20.884;2023-04-25T09:18:40;29.20;44.40
21275;DHT22;36472;52.170;20.884;2023-04-25T09:21:15;29.20;44.40
21275;DHT22;36472;52.170;20.884;2023-04-25T09:23:48;29.20;44.50
21275;DHT22;36472;52.170;20.884;2023-04-25T09:26:19;29.20;44.10
21275;DHT22;36472;52.170;20.884;2023-04-25T09:29:05;29.10;43.90
21275;DHT22;36472;52.170;20.884;2023-04-25T09:31:40;29.10;44.40
21275;DHT22;36472;52.170;20.884;2023-04-25T09:34:11;29.20;44.30
21275;DHT22;36472;52.170;20.884;2023-04-25T09:36:47;29.10;44.00
21275;DHT22;36472;52.170;20.884;2023-04-25T09:39:28;29.10;43.90
21275;DHT22;36472;52.170;20.884;2023-04-25T09:42:11;29.20;43.10
21275;DHT22;36472;52.170;20.884;2023-04-25T09:44:43;29.20;43.40
21275;DHT22;36472;52.170;20.884;2023-04-25T09:47:15;29.20;43.40
21275;DHT22;36472;52.170;20.884;2023-04-25T09:49:45;29.30;43.50
21275;DHT22;36472;52.170;20.884;2023-04-25T09:52:16;29.30;43.60
21275;DHT22;36472;52.170;20.884;2023-04-25T09:54:58;29.30;43.60
21275;DHT22;36472;52.170;20.884;2023-04-25T09:57:32;29.40;43.70
21275;DHT22;36472;52.170;20.884;2023-04-25T10:00:02;29.40;44.10
21275;DHT22;36472;52.170;20.884;2023-04-25T10:02:47;29.40;43.50
21275;DHT22;36472;52.170;20.884;2023-04-25T10:05:52;29.40;43.70
21275;DHT22;36472;52.170;20.884;2023-04-25T10:08:22;29.40;44.10
21275;DHT22;36472;52.170;20.884;2023-04-25T10:10:54;29.40;43.80
21275;DHT22;36472;52.170;20.884;2023-04-25T10:13:23;29.40;43.60
21275;DHT22;36472;52.170;20.884;2023-04-25T10:15:53;29.40;43.60
21275;DHT22;36472;52.170;20.884;2023-04-25T10:18:26;29.40;43.40
21275;DHT22;36472;52.170;20.884;2023-04-25T10:20:59;29.30;43.90
21275;DHT22;36472;52.170;20.884;2023-04-25T10:23:30;29.30;43.30
21275;DHT22;36472;52.170;20.884;2023-04-25T10:26:00;29.30;43.50
21275;DHT22;36472;52.170;20.884;2023-04-25T10:28:29;29.30;43.90
21275;DHT22;36472;52.170;20.884;2023-04-25T10:31:24;29.30;43.60
21275;DHT22;36472;52.170;20.884;2023-04-25T10:33:56;29.30;43.90
21275;DHT22;36472;52.170;20.884;2023-04-25T10:36:25;29.30;44.10
21275;DHT22;36472;52.170;20.884;2023-04-25T10:39:03;29.40;44.20
21275;DHT22;36472;52.170;20.884;2023-04-25T10:41:47;29.30;44.00
21275;DHT22;36472;52.170;20.884;2023-04-25T10:44:16;29.30;43.10
21275;DHT22;36472;52.170;20.884;2023-04-25T10:46:45;29.30;43.80
21275;DHT22;36472;52.170;20.884;2023-04-25T10:49:31;29.40;43.70
21275;DHT22;36472;52.170;20.884;2023-04-25T10:52:16;29.30;43.30
21275;DHT22;36472;52.170;20.884;2023-04-25T10:54:52;29.40;43.00
21275;DHT22;36472;52.170;20.884;2023-04-25T10:57:36;29.40;42.90
21275;DHT22;36472;52.170;20.884;2023-04-25T11:00:08;29.40;43.00
21275;DHT22;36472;52.170;20.884;2023-04-25T11:02:44;29.40;42.10
21275;DHT22;36472;52.170;20.884;2023-04-25T11:05:31;29.40;42.10
21275;DHT22;36472;52.170;20.884;2023-04-25T11:08:14;29.40;41.90
21275;DHT22;36472;52.170;20.884;2023-04-25T11:10:53;29.50;42.40
21275;DHT22;36472;52.170;20.884;2023-04-25T11:13:29;29.50;42.70
21275;DHT22;36472;52.170;20.884;2023-04-25T11:15:58;29.60;42.60
21275;DHT22;36472;52.170;20.884;2023-04-25T11:18:41;29.60;42.00
21275;DHT22;36472;52.170;20.884;2023-04-25T11:21:11;29.50;42.50
21275;DHT22;36472;52.170;20.884;2023-04-25T11:23:44;29.50;41.90
21275;DHT22;36472;52.170;20.884;2023-04-25T11:26:14;29.50;41.60
21275;DHT22;36472;52.170;20.884;2023-04-25T11:28:45;29.50;41.50
21275;DHT22;36472;52.170;20.884;2023-04-25T11:31:14;29.60;41.10
21275;DHT22;36472;52.170;20.884;2023-04-25T11:33:43;29.60;41.20
21275;DHT22;36472;52.170;20.884;2023-04-25T11:36:14;29.70;41.40
21275;DHT22;36472;52.170;20.884;2023-04-25T11:38:43;29.70;41.30
21275;DHT22;36472;52.170;20.884;2023-04-25T11:41:12;29.70;41.00
21275;DHT22;36472;52.170;20.884;2023-04-25T11:43:43;29.80;41.00
21275;DHT22;36472;52.170;20.884;2023-04-25T11:46:12;29.80;40.60
21275;DHT22;36472;52.170;20.884;2023-04-25T11:48:41;29.80;40.60
21275;DHT22;36472;52.170;20.884;2023-04-25T11:51:11;29.80;40.90
21275;DHT22;36472;52.170;20.884;2023-04-25T11:53:44;29.80;40.90
21275;DHT22;36472;52.170;20.884;2023-04-25T11:56:14;29.80;40.70
21275;DHT22;36472;52.170;20.884;2023-04-25T11:58:57;29.80;41.00
21275;DHT22;36472;52.170;20.884;2023-04-25T12:01:28;29.80;40.90
21275;DHT22;36472;52.170;20.884;2023-04-25T12:04:12;29.70;40.50
21275;DHT22;36472;52.170;20.884;2023-04-25T12:06:45;29.70;40.30
21275;DHT22;36472;52.170;20.884;2023-04-25T12:09:16;29.70;40.30
21275;DHT22;36472;52.170;20.884;2023-04-25T12:11:52;29.70;40.30
21275;DHT22;36472;52.170;20.884;2023-04-25T12:14:23;29.60;40.30
21275;DHT22;36472;52.170;20.884;2023-04-25T12:16:55;29.60;40.90
21275;DHT22;36472;52.170;20.884;2023-04-25T12:19:27;29.60;40.00
21275;DHT22;36472;52.170;20.884;2023-04-25T12:22:02;29.70;39.70
21275;DHT22;36472;52.170;20.884;2023-04-25T12:24:34;29.70;40.20
21275;DHT22;36472;52.170;20.884;2023-04-25T12:27:06;29.70;40.50
21275;DHT22;36472;52.170;20.884;2023-04-25T12:29:36;29.70;39.80
21275;DHT22;36472;52.170;20.884;2023-04-25T12:32:16;29.60;40.10
21275;DHT22;36472;52.170;20.884;2023-04-25T12:34:45;29.60;39.70
21275;DHT22;36472;52.170;20.884;2023-04-25T12:37:15;29.60;40.20
21275;DHT22;36472;52.170;20.884;2023-04-25T12:39:44;29.60;40.20
21275;DHT22;36472;52.170;20.884;2023-04-25T12:42:13;29.60;39.90
21275;DHT22;36472;52.170;20.884;2023-04-25T12:44:42;29.60;40.10
21275;DHT22;36472;52.170;20.884;2023-04-25T12:47:11;29.60;40.50
21275;DHT22;36472;52.170;20.884;2023-04-25T12:49:40;29.60;40.10
21275;DHT22;36472;52.170;20.884;2023-04-25T12:52:08;29.40;39.20
21275;DHT22;36472;52.170;20.884;2023-04-25T12:54:39;29.40;39.80
21275;DHT22;36472;52.170;20.884;2023-04-25T12:57:08;29.40;40.30
21275;DHT22;36472;52.170;20.884;2023-04-25T12:59:37;29.40;40.10
21275;DHT22;36472;52.170;20.884;2023-04-25T13:02:06;29.40;40.50
21275;DHT22;36472;52.170;20.884;2023-04-25T13:04:35;29.50;40.40
21275;DHT22;36472;52.170;20.884;2023-04-25T13:07:03;29.50;40.70
21275;DHT22;36472;52.170;20.884;2023-04-25T13:09:32;29.50;40.40
21275;DHT22;36472;52.170;20.884;2023-04-25T13:12:03;29.60;40.40
21275;DHT22;36472;52.170;20.884;2023-04-25T13:14:32;29.60;40.70
21275;DHT22;36472;52.170;20.884;2023-04-25T13:17:01;29.60;40.40
21275;DHT22;36472;52.170;20.884;2023-04-25T13:19:32;29.60;40.30
21275;DHT22;36472;52.170;20.884;2023-04-25T13:22:03;29.60;40.80
21275;DHT22;36472;52.170;20.884;2023-04-25T13:24:32;29.60;40.90
21275;DHT22;36472;52.170;20.884;2023-04-25T13:27:02;29.70;41.40
21275;DHT22;36472;52.170;20.884;2023-04-25T13:29:32;29.70;41.70
21275;DHT22;36472;52.170;20.884;2023-04-25T13:32:02;29.70;41.10
21275;DHT22;36472;52.170;20.884;2023-04-25T13:34:32;29.70;41.70
21275;DHT22;36472;52.170;20.884;2023-04-25T13:37:01;29.70;41.50
21275;DHT22;36472;52.170;20.884;2023-04-25T13:39:30;29.70;40.90
21275;DHT22;36472;52.170;20.884;2023-04-25T13:41:59;29.70;41.60
21275;DHT22;36472;52.170;20.884;2023-04-25T13:44:30;29.70;42.00
21275;DHT22;36472;52.170;20.884;2023-04-25T13:46:59;29.70;41.80
21275;DHT22;36472;52.170;20.884;2023-04-25T13:49:28;29.80;42.50
21275;DHT22;36472;52.170;20.884;2023-04-25T13:51:57;29.70;41.50
21275;DHT22;36472;52.170;20.884;2023-04-25T13:54:26;29.70;41.60
21275;DHT22;36472;52.170;20.884;2023-04-25T13:56:55;29.70;41.50
21275;DHT22;36472;52.170;20.884;2023-04-25T13:59:26;29.70;42.20
21275;DHT22;36472;52.170;20.884;2023-04-25T14:01:57;29.70;42.10
21275;DHT22;36472;52.170;20.884;2023-04-25T14:04:26;29.70;41.80
21275;DHT22;36472;52.170;20.884;2023-04-25T14:06:55;29.70;42.60
21275;DHT22;36472;52.170;20.884;2023-04-25T14:09:24;29.70;42.30
21275;DHT22;36472;52.170;20.884;2023-04-25T14:11:55;29.70;42.70
21275;DHT22;36472;52.170;20.884;2023-04-25T14:14:24;29.70;42.70
21275;DHT22;36472;52.170;20.884;2023-04-25T14:16:53;29.80;42.80
21275;DHT22;36472;52.170;20.884;2023-04-25T14:19:25;29.80;42.80
21275;DHT22;36472;52.170;20.884;2023-04-25T14:21:55;29.80;41.80
21275;DHT22;36472;52.170;20.884;2023-04-25T14:24:25;29.90;41.70
21275;DHT22;36472;52.170;20.884;2023-04-25T14:26:53;29.90;41.60
21275;DHT22;36472;52.170;20.884;2023-04-25T14:29:22;29.90;41.70
21275;DHT22;36472;52.170;20.884;2023-04-25T14:31:52;29.90;41.50
21275;DHT22;36472;52.170;20.884;2023-04-25T14:34:21;29.90;42.00
21275;DHT22;36472;52.170;20.884;2023-04-25T14:36:52;29.90;42.00
21275;DHT22;36472;52.170;20.884;2023-04-25T14:39:21;29.90;42.40
21275;DHT22;36472;52.170;20.884;2023-04-25T14:41:49;29.90;41.70
21275;DHT22;36472;52.170;20.884;2023-04-25T14:44:18;30.00;42.00
21275;DHT22;36472;52.170;20.884;2023-04-25T14:46:47;29.90;42.10
21275;DHT22;36472;52.170;20.884;2023-04-25T14:49:19;29.80;42.30
21275;DHT22;36472;52.170;20.884;2023-04-25T14:51:48;29.80;43.20
21275;DHT22;36472;52.170;20.884;2023-04-25T14:54:19;29.80;43.70
21275;DHT22;36472;52.170;20.884;2023-04-25T14:56:48;29.80;43.30
21275;DHT22;36472;52.170;20.884;2023-04-25T14:59:17;29.80;43.30
21275;DHT22;36472;52.170;20.884;2023-04-25T15:01:47;29.70;43.60
21275;DHT22;36472;52.170;20.884;2023-04-25T15:04:16;29.70;43.60
21275;DHT22;36472;52.170;20.884;2023-04-25T15:06:45;29.60;42.60
21275;DHT22;36472;52.170;20.884;2023-04-25T15:09:14;29.60;43.50
21275;DHT22;36472;52.170;20.884;2023-04-25T15:11:46;29.50;43.10
21275;DHT22;36472;52.170;20.884;2023-04-25T15:14:16;29.40;41.90
21275;DHT22;36472;52.170;20.884;2023-04-25T15:16:45;29.40;42.40
21275;DHT22;36472;52.170;20.884;2023-04-25T15:19:14;29.30;42.40
21275;DHT22;36472;52.170;20.884;2023-04-25T15:21:43;29.30;42.60
21275;DHT22;36472;52.170;20.884;2023-04-25T15:24:12;29.30;42.30
21275;DHT22;36472;52.170;20.884;2023-04-25T15:26:42;29.30;42.40
21275;DHT22;36472;52.170;20.884;2023-04-25T15:29:12;29.30;42.10
21275;DHT22;36472;52.170;20.884;2023-04-25T15:31:41;29.30;42.20
21275;DHT22;36472;52.170;20.884;2023-04-25T15:34:10;29.30;42.10
21275;DHT22;36472;52.170;20.884;2023-04-25T15:36:39;29.30;42.60
21275;DHT22;36472;52.170;20.884;2023-04-25T15:39:08;29.30;42.20
21275;DHT22;36472;52.170;20.884;2023-04-25T15:41:37;29.30;42.30
21275;DHT22;36472;52.170;20.884;2023-04-25T15:44:06;29.30;42.20
21275;DHT22;36472;52.170;20.884;2023-04-25T15:46:38;29.30;42.40
21275;DHT22;36472;52.170;20.884;2023-04-25T15:49:07;29.30;42.60
21275;DHT22;36472;52.170;20.884;2023-04-25T15:51:37;29.20;42.20